sensor_id;sensor_type;location;lat;lon;timestamp;temperature;humidity
42097;DHT22;27754;45.414;11.084;2023-03-04T00:02:20;8.40;78.20
42097;DHT22;27754;45.414;11.084;2023-03-04T00:04:47;8.40;78.20
42097;DHT22;27754;45.414;11.084;2023-03-04T00:07:14;8.40;77.70
42097;DHT22;27754;45.414;11.084;2023-03-04T00:09:45;8.40;77.40
42097;DHT22;27754;45.414;11.084;2023-03-04T00:12:12;8.40;77.40
42097;DHT22;27754;45.414;11.084;2023-03-04T00:14:40;8.40;77.90
42097;DHT22;27754;45.414;11.084;2023-03-04T00:17:07;8.10;78.40
42097;DHT22;27754;45.414;11.084;2023-03-04T00:19:34;7.90;78.80
42097;DHT22;27754;45.414;11.084;2023-03-04T00:22:02;7.90;78.90
42097;DHT22;27754;45.414;11.084;2023-03-04T00:24:30;7.80;79.10
42097;DHT22;27754;45.414;11.084;2023-03-04T00:26:57;7.90;78.90
42097;DHT22;27754;45.414;11.084;2023-03-04T00:29:24;7.80;79.10
42097;DHT22;27754;45.414;11.084;2023-03-04T00:31:51;7.70;79.20
42097;DHT22;27754;45.414;11.084;2023-03-04T00:34:18;7.70;79.50
42097;DHT22;27754;45.414;11.084;2023-03-04T00:36:45;7.60;79.60
42097;DHT22;27754;45.414;11.084;2023-03-04T00:39:13;7.60;79.70
42097;DHT22;27754;45.414;11.084;2023-03-04T00:41:40;7.60;79.80
42097;DHT22;27754;45.414;11.084;2023-03-04T00:44:07;7.50;80.10
42097;DHT22;27754;45.414;11.084;2023-03-04T00:46:34;7.50;80.30
42097;DHT22;27754;45.414;11.084;2023-03-04T00:49:01;7.60;79.80
42097;DHT22;27754;45.414;11.084;2023-03-04T00:51:28;7.70;79.50
42097;DHT22;27754;45.414;11.084;2023-03-04T00:53:55;7.60;79.20
42097;DHT22;27754;45.414;11.084;2023-03-04T00:56:25;7.70;79.10
42097;DHT22;27754;45.414;11.084;2023-03-04T00:58:52;7.60;79.30
42097;DHT22;27754;45.414;11.084;2023-03-04T01:01:19;7.60;79.50
42097;DHT22;27754;45.414;11.084;2023-03-04T01:03:46;7.50;79.60
42097;DHT22;27754;45.414;11.084;2023-03-04T01:06:13;7.60;79.00
42097;DHT22;27754;45.414;11.084;2023-03-04T01:08:40;7.60;78.70
42097;DHT22;27754;45.414;11.084;2023-03-04T01:11:07;7.60;78.40
42097;DHT22;27754;45.414;11.084;2023-03-04T01:13:34;7.70;78.30
42097;DHT22;27754;45.414;11.084;2023-03-04T01:16:01;7.70;78.00
42097;DHT22;27754;45.414;11.084;2023-03-04T01:18:31;7.70;78.00
42097;DHT22;27754;45.414;11.084;2023-03-04T01:20:58;7.70;78.00
42097;DHT22;27754;45.414;11.084;2023-03-04T01:23:28;7.70;78.00
42097;DHT22;27754;45.414;11.084;2023-03-04T01:25:58;7.60;77.90
42097;DHT22;27754;45.414;11.084;2023-03-04T01:28:25;7.60;78.00
42097;DHT22;27754;45.414;11.084;2023-03-04T01:30:52;7.60;78.10
42097;DHT22;27754;45.414;11.084;2023-03-04T01:33:19;7.50;78.50
42097;DHT22;27754;45.414;11.084;2023-03-04T01:35:46;7.50;78.70
42097;DHT22;27754;45.414;11.084;2023-03-04T01:38:13;7.50;78.80
42097;DHT22;27754;45.414;11.084;2023-03-04T01:40:40;7.50;78.60
42097;DHT22;27754;45.414;11.084;2023-03-04T01:43:26;7.50;78.30
42097;DHT22;27754;45.414;11.084;2023-03-04T01:45:54;7.50;78.30
42097;DHT22;27754;45.414;11.084;2023-03-04T01:48:28;7.50;78.20
42097;DHT22;27754;45.414;11.084;2023-03-04T01:50:57;7.60;78.10
42097;DHT22;27754;45.414;11.084;2023-03-04T01:53:26;7.60;77.80
42097;DHT22;27754;45.414;11.084;2023-03-04T01:55:59;7.70;77.40
42097;DHT22;27754;45.414;11.084;2023-03-04T01:58:31;7.80;76.50
42097;DHT22;27754;45.414;11.084;2023-03-04T02:00:58;7.80;76.30
42097;DHT22;27754;45.414;11.084;2023-03-04T02:03:25;7.80;76.50
42097;DHT22;27754;45.414;11.084;2023-03-04T02:05:53;7.90;76.60
42097;DHT22;27754;45.414;11.084;2023-03-04T02:08:22;7.90;76.50
42097;DHT22;27754;45.414;11.084;2023-03-04T02:10:50;7.90;76.60
42097;DHT22;27754;45.414;11.084;2023-03-04T02:13:18;7.80;76.80
42097;DHT22;27754;45.414;11.084;2023-03-04T02:15:45;7.80;76.90
42097;DHT22;27754;45.414;11.084;2023-03-04T02:18:19;7.80;77.30
42097;DHT22;27754;45.414;11.084;2023-03-04T02:21:09;7.70;77.60
42097;DHT22;27754;45.414;11.084;2023-03-04T02:26:28;7.60;78.10
42097;DHT22;27754;45.414;11.084;2023-03-04T02:28:57;7.60;78.30
42097;DHT22;27754;45.414;11.084;2023-03-04T02:31:35;7.50;78.70
42097;DHT22;27754;45.414;11.084;2023-03-04T02:36:38;7.60;78.50
42097;DHT22;27754;45.414;11.084;2023-03-04T02:39:34;7.60;78.30
42097;DHT22;27754;45.414;11.084;2023-03-04T02:42:03;7.60;78.40
42097;DHT22;27754;45.414;11.084;2023-03-04T02:44:34;7.60;78.50
42097;DHT22;27754;45.414;11.084;2023-03-04T02:47:03;7.60;78.60
42097;DHT22;27754;45.414;11.084;2023-03-04T02:49:31;7.50;78.60
42097;DHT22;27754;45.414;11.084;2023-03-04T02:52:04;7.50;78.60
42097;DHT22;27754;45.414;11.084;2023-03-04T02:54:32;7.40;79.10
42097;DHT22;27754;45.414;11.084;2023-03-04T02:57:06;7.40;79.20
42097;DHT22;27754;45.414;11.084;2023-03-04T02:59:36;7.30;79.20
42097;DHT22;27754;45.414;11.084;2023-03-04T03:02:05;7.30;79.30
42097;DHT22;27754;45.414;11.084;2023-03-04T03:04:35;7.40;79.30
42097;DHT22;27754;45.414;11.084;2023-03-04T03:07:06;7.40;79.20
42097;DHT22;27754;45.414;11.084;2023-03-04T03:09:34;7.40;79.20
42097;DHT22;27754;45.414;11.084;2023-03-04T03:12:01;7.40;79.30
42097;DHT22;27754;45.414;11.084;2023-03-04T03:14:30;7.40;79.00
42097;DHT22;27754;45.414;11.084;2023-03-04T03:16:57;7.40;79.20
42097;DHT22;27754;45.414;11.084;2023-03-04T03:19:24;7.40;79.00
42097;DHT22;27754;45.414;11.084;2023-03-04T03:21:53;7.40;79.00
42097;DHT22;27754;45.414;11.084;2023-03-04T03:24:19;7.30;79.20
42097;DHT22;27754;45.414;11.084;2023-03-04T03:26:47;7.30;79.40
42097;DHT22;27754;45.414;11.084;2023-03-04T03:29:13;7.30;79.30
42097;DHT22;27754;45.414;11.084;2023-03-04T03:31:40;7.20;79.40
42097;DHT22;27754;45.414;11.084;2023-03-04T03:34:07;7.10;79.60
42097;DHT22;27754;45.414;11.084;2023-03-04T03:36:34;7.10;79.80
42097;DHT22;27754;45.414;11.084;2023-03-04T03:39:02;7.00;80.30
42097;DHT22;27754;45.414;11.084;2023-03-04T03:41:29;7.00;80.40
42097;DHT22;27754;45.414;11.084;2023-03-04T03:43:56;7.00;80.20
42097;DHT22;27754;45.414;11.084;2023-03-04T03:46:22;7.00;80.30
42097;DHT22;27754;45.414;11.084;2023-03-04T03:48:49;6.90;80.50
42097;DHT22;27754;45.414;11.084;2023-03-04T03:51:16;6.90;80.90
42097;DHT22;27754;45.414;11.084;2023-03-04T03:53:43;6.80;81.40
42097;DHT22;27754;45.414;11.084;2023-03-04T03:56:10;6.80;81.50
42097;DHT22;27754;45.414;11.084;2023-03-04T03:58:37;6.70;81.40
42097;DHT22;27754;45.414;11.084;2023-03-04T04:01:04;6.60;81.20
42097;DHT22;27754;45.414;11.084;2023-03-04T04:03:31;6.50;81.20
42097;DHT22;27754;45.414;11.084;2023-03-04T04:05:58;6.40;81.80
42097;DHT22;27754;45.414;11.084;2023-03-04T04:08:25;6.40;81.90
42097;DHT22;27754;45.414;11.084;2023-03-04T04:10:52;6.40;81.90
42097;DHT22;27754;45.414;11.084;2023-03-04T04:13:19;6.40;82.30
42097;DHT22;27754;45.414;11.084;2023-03-04T04:15:46;6.30;82.20
42097;DHT22;27754;45.414;11.084;2023-03-04T04:18:13;6.30;82.80
42097;DHT22;27754;45.414;11.084;2023-03-04T04:20:40;6.40;82.90
42097;DHT22;27754;45.414;11.084;2023-03-04T04:23:07;6.50;82.30
42097;DHT22;27754;45.414;11.084;2023-03-04T04:25:34;6.50;82.10
42097;DHT22;27754;45.414;11.084;2023-03-04T04:28:01;6.50;81.80
42097;DHT22;27754;45.414;11.084;2023-03-04T04:30:28;6.50;81.90
42097;DHT22;27754;45.414;11.084;2023-03-04T04:32:55;6.40;82.50
42097;DHT22;27754;45.414;11.084;2023-03-04T04:35:21;6.40;82.70
42097;DHT22;27754;45.414;11.084;2023-03-04T04:37:48;6.40;83.30
42097;DHT22;27754;45.414;11.084;2023-03-04T04:40:15;6.40;83.20
42097;DHT22;27754;45.414;11.084;2023-03-04T04:42:42;6.30;83.50
42097;DHT22;27754;45.414;11.084;2023-03-04T04:45:10;6.30;83.50
42097;DHT22;27754;45.414;11.084;2023-03-04T04:47:37;6.20;83.60
42097;DHT22;27754;45.414;11.084;2023-03-04T04:50:04;6.20;83.80
42097;DHT22;27754;45.414;11.084;2023-03-04T04:52:31;6.10;84.00
42097;DHT22;27754;45.414;11.084;2023-03-04T04:54:58;6.10;83.70
42097;DHT22;27754;45.414;11.084;2023-03-04T04:57:25;6.10;83.70
42097;DHT22;27754;45.414;11.084;2023-03-04T04:59:52;5.90;83.80
42097;DHT22;27754;45.414;11.084;2023-03-04T05:02:19;5.90;84.30
42097;DHT22;27754;45.414;11.084;2023-03-04T05:04:46;5.80;84.30
42097;DHT22;27754;45.414;11.084;2023-03-04T05:07:13;5.80;84.50
42097;DHT22;27754;45.414;11.084;2023-03-04T05:09:40;5.70;84.50
42097;DHT22;27754;45.414;11.084;2023-03-04T05:12:07;5.70;84.70
42097;DHT22;27754;45.414;11.084;2023-03-04T05:14:34;5.60;82.90
42097;DHT22;27754;45.414;11.084;2023-03-04T05:17:01;5.40;83.80
42097;DHT22;27754;45.414;11.084;2023-03-04T05:19:28;5.30;85.20
42097;DHT22;27754;45.414;11.084;2023-03-04T05:21:55;5.30;85.80
42097;DHT22;27754;45.414;11.084;2023-03-04T05:24:22;5.30;85.80
42097;DHT22;27754;45.414;11.084;2023-03-04T05:26:49;5.40;85.90
42097;DHT22;27754;45.414;11.084;2023-03-04T05:29:16;5.40;85.60
42097;DHT22;27754;45.414;11.084;2023-03-04T05:31:43;5.40;85.40
42097;DHT22;27754;45.414;11.084;2023-03-04T05:34:10;5.40;85.80
42097;DHT22;27754;45.414;11.084;2023-03-04T05:36:37;5.40;85.80
42097;DHT22;27754;45.414;11.084;2023-03-04T05:39:04;5.40;85.70
42097;DHT22;27754;45.414;11.084;2023-03-04T05:41:31;5.40;85.80
42097;DHT22;27754;45.414;11.084;2023-03-04T05:43:58;5.40;85.90
42097;DHT22;27754;45.414;11.084;2023-03-04T05:46:25;5.40;85.70
42097;DHT22;27754;45.414;11.084;2023-03-04T05:48:52;5.50;85.60
42097;DHT22;27754;45.414;11.084;2023-03-04T05:51:20;5.50;85.50
42097;DHT22;27754;45.414;11.084;2023-03-04T05:53:48;5.60;84.90
42097;DHT22;27754;45.414;11.084;2023-03-04T05:56:17;5.60;85.10
42097;DHT22;27754;45.414;11.084;2023-03-04T05:58:45;5.60;85.20
42097;DHT22;27754;45.414;11.084;2023-03-04T06:01:15;5.50;85.20
42097;DHT22;27754;45.414;11.084;2023-03-04T06:03:42;5.40;85.50
42097;DHT22;27754;45.414;11.084;2023-03-04T06:06:09;5.30;85.20
42097;DHT22;27754;45.414;11.084;2023-03-04T06:08:36;5.30;85.30
42097;DHT22;27754;45.414;11.084;2023-03-04T06:11:04;5.30;86.00
42097;DHT22;27754;45.414;11.084;2023-03-04T06:13:32;5.30;86.00
42097;DHT22;27754;45.414;11.084;2023-03-04T06:15:59;5.30;85.80
42097;DHT22;27754;45.414;11.084;2023-03-04T06:18:27;5.10;83.70
42097;DHT22;27754;45.414;11.084;2023-03-04T06:20:59;5.00;84.40
42097;DHT22;27754;45.414;11.084;2023-03-04T06:23:27;5.10;85.60
42097;DHT22;27754;45.414;11.084;2023-03-04T06:25:56;5.20;85.70
42097;DHT22;27754;45.414;11.084;2023-03-04T06:28:23;5.20;86.00
42097;DHT22;27754;45.414;11.084;2023-03-04T06:30:51;5.30;86.00
42097;DHT22;27754;45.414;11.084;2023-03-04T06:33:19;5.40;85.70
42097;DHT22;27754;45.414;11.084;2023-03-04T06:35:47;5.50;85.50
42097;DHT22;27754;45.414;11.084;2023-03-04T06:38:14;5.60;85.10
42097;DHT22;27754;45.414;11.084;2023-03-04T06:40:41;5.80;85.30
42097;DHT22;27754;45.414;11.084;2023-03-04T06:43:08;5.90;85.20
42097;DHT22;27754;45.414;11.084;2023-03-04T06:45:37;6.00;85.10
42097;DHT22;27754;45.414;11.084;2023-03-04T06:48:05;6.30;84.50
42097;DHT22;27754;45.414;11.084;2023-03-04T06:50:32;6.40;83.40
42097;DHT22;27754;45.414;11.084;2023-03-04T06:52:59;6.40;83.20
42097;DHT22;27754;45.414;11.084;2023-03-04T06:55:26;6.50;83.40
42097;DHT22;27754;45.414;11.084;2023-03-04T06:57:53;6.60;83.10
42097;DHT22;27754;45.414;11.084;2023-03-04T07:00:20;6.80;82.60
42097;DHT22;27754;45.414;11.084;2023-03-04T07:02:50;7.00;81.40
42097;DHT22;27754;45.414;11.084;2023-03-04T07:05:20;7.10;81.40
42097;DHT22;27754;45.414;11.084;2023-03-04T07:07:47;7.30;81.80
42097;DHT22;27754;45.414;11.084;2023-03-04T07:10:17;7.50;81.20
42097;DHT22;27754;45.414;11.084;2023-03-04T07:12:44;7.60;80.50
42097;DHT22;27754;45.414;11.084;2023-03-04T07:15:11;7.80;80.10
42097;DHT22;27754;45.414;11.084;2023-03-04T07:17:38;7.90;80.10
42097;DHT22;27754;45.414;11.084;2023-03-04T07:20:06;8.00;79.50
42097;DHT22;27754;45.414;11.084;2023-03-04T07:22:33;8.20;78.60
42097;DHT22;27754;45.414;11.084;2023-03-04T07:24:59;8.40;78.00
42097;DHT22;27754;45.414;11.084;2023-03-04T07:27:26;8.40;77.60
42097;DHT22;27754;45.414;11.084;2023-03-04T07:29:53;8.60;77.30
42097;DHT22;27754;45.414;11.084;2023-03-04T07:32:20;8.50;77.70
42097;DHT22;27754;45.414;11.084;2023-03-04T07:34:47;8.70;78.10
42097;DHT22;27754;45.414;11.084;2023-03-04T07:37:14;8.80;77.10
42097;DHT22;27754;45.414;11.084;2023-03-04T07:39:41;9.00;77.50
42097;DHT22;27754;45.414;11.084;2023-03-04T07:42:08;9.10;76.40
42097;DHT22;27754;45.414;11.084;2023-03-04T07:44:39;9.10;75.90
42097;DHT22;27754;45.414;11.084;2023-03-04T07:47:06;9.30;76.10
42097;DHT22;27754;45.414;11.084;2023-03-04T07:49:33;9.40;76.00
42097;DHT22;27754;45.414;11.084;2023-03-04T07:52:03;9.60;74.90
42097;DHT22;27754;45.414;11.084;2023-03-04T07:54:30;9.80;74.00
42097;DHT22;27754;45.414;11.084;2023-03-04T07:56:57;9.90;73.80
42097;DHT22;27754;45.414;11.084;2023-03-04T07:59:24;10.00;73.00
42097;DHT22;27754;45.414;11.084;2023-03-04T08:01:51;10.10;72.80
42097;DHT22;27754;45.414;11.084;2023-03-04T08:04:18;10.20;72.40
42097;DHT22;27754;45.414;11.084;2023-03-04T08:06:45;10.20;72.70
42097;DHT22;27754;45.414;11.084;2023-03-04T08:09:14;10.40;73.00
42097;DHT22;27754;45.414;11.084;2023-03-04T08:11:42;10.40;73.10
42097;DHT22;27754;45.414;11.084;2023-03-04T08:14:12;10.40;73.10
42097;DHT22;27754;45.414;11.084;2023-03-04T08:16:40;10.40;73.50
42097;DHT22;27754;45.414;11.084;2023-03-04T08:19:07;10.50;73.80
42097;DHT22;27754;45.414;11.084;2023-03-04T08:21:34;10.70;73.60
42097;DHT22;27754;45.414;11.084;2023-03-04T08:24:02;10.80;73.20
42097;DHT22;27754;45.414;11.084;2023-03-04T08:26:37;10.90;73.40
42097;DHT22;27754;45.414;11.084;2023-03-04T08:29:10;11.00;73.80
42097;DHT22;27754;45.414;11.084;2023-03-04T08:31:37;11.10;73.90
42097;DHT22;27754;45.414;11.084;2023-03-04T08:34:06;11.20;73.50
42097;DHT22;27754;45.414;11.084;2023-03-04T08:36:34;11.30;73.50
42097;DHT22;27754;45.414;11.084;2023-03-04T08:39:02;11.30;72.70
42097;DHT22;27754;45.414;11.084;2023-03-04T08:41:29;11.40;72.20
42097;DHT22;27754;45.414;11.084;2023-03-04T08:43:58;11.40;71.90
42097;DHT22;27754;45.414;11.084;2023-03-04T08:46:26;11.50;72.10
42097;DHT22;27754;45.414;11.084;2023-03-04T08:48:53;11.70;71.10
42097;DHT22;27754;45.414;11.084;2023-03-04T08:51:20;11.70;71.90
42097;DHT22;27754;45.414;11.084;2023-03-04T08:53:47;11.80;71.80
42097;DHT22;27754;45.414;11.084;2023-03-04T08:56:15;11.90;71.50
42097;DHT22;27754;45.414;11.084;2023-03-04T08:58:42;11.90;70.50
42097;DHT22;27754;45.414;11.084;2023-03-04T09:01:11;11.90;69.40
42097;DHT22;27754;45.414;11.084;2023-03-04T09:03:38;12.00;69.10
42097;DHT22;27754;45.414;11.084;2023-03-04T09:06:07;12.10;69.80
42097;DHT22;27754;45.414;11.084;2023-03-04T09:08:34;12.10;70.10
42097;DHT22;27754;45.414;11.084;2023-03-04T09:11:01;12.00;68.10
42097;DHT22;27754;45.414;11.084;2023-03-04T09:13:30;12.00;67.80
42097;DHT22;27754;45.414;11.084;2023-03-04T09:15:57;12.10;67.80
42097;DHT22;27754;45.414;11.084;2023-03-04T09:18:26;12.20;67.30
42097;DHT22;27754;45.414;11.084;2023-03-04T09:20:53;12.10;66.50
42097;DHT22;27754;45.414;11.084;2023-03-04T09:23:21;12.20;66.90
42097;DHT22;27754;45.414;11.084;2023-03-04T09:25:48;12.20;66.20
42097;DHT22;27754;45.414;11.084;2023-03-04T09:28:16;12.30;65.20
42097;DHT22;27754;45.414;11.084;2023-03-04T09:30:43;12.40;64.30
42097;DHT22;27754;45.414;11.084;2023-03-04T09:33:11;12.40;64.40
42097;DHT22;27754;45.414;11.084;2023-03-04T09:35:38;12.50;63.80
42097;DHT22;27754;45.414;11.084;2023-03-04T09:38:05;12.60;62.90
42097;DHT22;27754;45.414;11.084;2023-03-04T09:40:44;12.60;61.20
42097;DHT22;27754;45.414;11.084;2023-03-04T09:43:19;12.50;60.60
42097;DHT22;27754;45.414;11.084;2023-03-04T09:45:53;12.60;62.80
42097;DHT22;27754;45.414;11.084;2023-03-04T09:48:22;12.70;61.50
42097;DHT22;27754;45.414;11.084;2023-03-04T09:51:39;12.80;60.50
42097;DHT22;27754;45.414;11.084;2023-03-04T09:56:28;12.80;58.90
42097;DHT22;27754;45.414;11.084;2023-03-04T09:59:15;12.90;55.90
42097;DHT22;27754;45.414;11.084;2023-03-04T10:01:52;13.00;56.20
42097;DHT22;27754;45.414;11.084;2023-03-04T10:04:41;12.90;57.80
42097;DHT22;27754;45.414;11.084;2023-03-04T10:07:17;12.90;56.50
42097;DHT22;27754;45.414;11.084;2023-03-04T10:10:06;13.10;57.70
42097;DHT22;27754;45.414;11.084;2023-03-04T10:12:38;13.10;58.00
42097;DHT22;27754;45.414;11.084;2023-03-04T10:15:35;13.00;57.70
42097;DHT22;27754;45.414;11.084;2023-03-04T10:18:21;13.00;56.70
42097;DHT22;27754;45.414;11.084;2023-03-04T10:23:39;13.10;58.40
42097;DHT22;27754;45.414;11.084;2023-03-04T10:26:14;13.10;57.30
42097;DHT22;27754;45.414;11.084;2023-03-04T10:28:42;13.20;56.60
42097;DHT22;27754;45.414;11.084;2023-03-04T10:33:57;13.20;56.20
42097;DHT22;27754;45.414;11.084;2023-03-04T10:36:32;13.30;56.70
42097;DHT22;27754;45.414;11.084;2023-03-04T10:39:09;13.30;55.60
42097;DHT22;27754;45.414;11.084;2023-03-04T10:41:44;13.30;57.10
42097;DHT22;27754;45.414;11.084;2023-03-04T10:44:19;13.40;58.50
42097;DHT22;27754;45.414;11.084;2023-03-04T10:46:47;13.40;57.70
42097;DHT22;27754;45.414;11.084;2023-03-04T10:49:17;13.50;57.50
42097;DHT22;27754;45.414;11.084;2023-03-04T10:51:47;13.50;57.50
42097;DHT22;27754;45.414;11.084;2023-03-04T10:57:00;13.60;56.80
42097;DHT22;27754;45.414;11.084;2023-03-04T10:59:41;13.50;56.80
42097;DHT22;27754;45.414;11.084;2023-03-04T11:02:31;13.50;56.40
42097;DHT22;27754;45.414;11.084;2023-03-04T11:07:58;13.50;57.90
42097;DHT22;27754;45.414;11.084;2023-03-04T11:13:18;13.60;57.40
42097;DHT22;27754;45.414;11.084;2023-03-04T11:18:55;13.60;58.80
42097;DHT22;27754;45.414;11.084;2023-03-04T11:21:26;13.70;58.30
42097;DHT22;27754;45.414;11.084;2023-03-04T11:24:03;13.80;58.60
42097;DHT22;27754;45.414;11.084;2023-03-04T11:26:42;13.80;60.00
42097;DHT22;27754;45.414;11.084;2023-03-04T11:37:41;14.00;60.80
42097;DHT22;27754;45.414;11.084;2023-03-04T11:40:12;13.90;60.80
42097;DHT22;27754;45.414;11.084;2023-03-04T11:45:16;13.90;61.30
42097;DHT22;27754;45.414;11.084;2023-03-04T11:50:47;14.10;62.50
42097;DHT22;27754;45.414;11.084;2023-03-04T11:56:01;14.10;61.80
42097;DHT22;27754;45.414;11.084;2023-03-04T11:59:25;14.10;61.70
42097;DHT22;27754;45.414;11.084;2023-03-04T12:02:17;14.30;61.10
42097;DHT22;27754;45.414;11.084;2023-03-04T12:10:38;14.40;62.50
42097;DHT22;27754;45.414;11.084;2023-03-04T12:13:38;14.40;62.30
42097;DHT22;27754;45.414;11.084;2023-03-04T12:16:35;14.40;62.60
42097;DHT22;27754;45.414;11.084;2023-03-04T12:19:36;14.40;63.30
42097;DHT22;27754;45.414;11.084;2023-03-04T12:46:36;14.60;61.60
42097;DHT22;27754;45.414;11.084;2023-03-04T12:55:03;14.80;59.80
42097;DHT22;27754;45.414;11.084;2023-03-04T12:57:33;14.70;59.90
42097;DHT22;27754;45.414;11.084;2023-03-04T13:00:30;14.60;59.60
42097;DHT22;27754;45.414;11.084;2023-03-04T13:03:16;14.70;60.50
42097;DHT22;27754;45.414;11.084;2023-03-04T13:06:11;14.80;59.60
42097;DHT22;27754;45.414;11.084;2023-03-04T13:08:52;14.80;59.20
42097;DHT22;27754;45.414;11.084;2023-03-04T13:11:44;14.80;59.50
42097;DHT22;27754;45.414;11.084;2023-03-04T13:16:44;15.00;59.90
42097;DHT22;27754;45.414;11.084;2023-03-04T13:19:41;15.00;57.50
42097;DHT22;27754;45.414;11.084;2023-03-04T13:22:28;14.90;57.20
42097;DHT22;27754;45.414;11.084;2023-03-04T13:24:57;14.90;58.50
42097;DHT22;27754;45.414;11.084;2023-03-04T13:28:04;15.00;57.90
42097;DHT22;27754;45.414;11.084;2023-03-04T13:43:51;15.00;59.70
42097;DHT22;27754;45.414;11.084;2023-03-04T13:54:28;15.10;58.10
42097;DHT22;27754;45.414;11.084;2023-03-04T13:59:46;15.00;57.60
42097;DHT22;27754;45.414;11.084;2023-03-04T14:02:20;15.00;58.50
42097;DHT22;27754;45.414;11.084;2023-03-04T14:04:59;14.90;57.70
42097;DHT22;27754;45.414;11.084;2023-03-04T14:07:33;15.00;58.00
42097;DHT22;27754;45.414;11.084;2023-03-04T14:12:47;15.00;58.20
42097;DHT22;27754;45.414;11.084;2023-03-04T14:15:28;15.00;57.70
42097;DHT22;27754;45.414;11.084;2023-03-04T14:17:57;15.10;59.00
42097;DHT22;27754;45.414;11.084;2023-03-04T14:20:30;15.30;58.50
42097;DHT22;27754;45.414;11.084;2023-03-04T14:22:59;15.10;57.80
42097;DHT22;27754;45.414;11.084;2023-03-04T14:25:32;15.10;58.20
42097;DHT22;27754;45.414;11.084;2023-03-04T14:28:17;15.10;58.30
42097;DHT22;27754;45.414;11.084;2023-03-04T14:30:53;15.10;58.40
42097;DHT22;27754;45.414;11.084;2023-03-04T14:33:21;15.10;58.20
42097;DHT22;27754;45.414;11.084;2023-03-04T14:35:51;15.00;58.10
42097;DHT22;27754;45.414;11.084;2023-03-04T14:38:26;15.00;58.70
42097;DHT22;27754;45.414;11.084;2023-03-04T14:43:41;15.00;58.80
42097;DHT22;27754;45.414;11.084;2023-03-04T14:46:12;15.00;58.60
42097;DHT22;27754;45.414;11.084;2023-03-04T14:48:47;15.00;58.50
42097;DHT22;27754;45.414;11.084;2023-03-04T14:54:37;14.90;58.60
42097;DHT22;27754;45.414;11.084;2023-03-04T14:57:22;14.90;58.90
42097;DHT22;27754;45.414;11.084;2023-03-04T14:59:52;14.90;58.50
42097;DHT22;27754;45.414;11.084;2023-03-04T15:04:47;14.80;58.80
42097;DHT22;27754;45.414;11.084;2023-03-04T15:07:20;14.90;59.20
42097;DHT22;27754;45.414;11.084;2023-03-04T15:09:52;14.90;59.60
42097;DHT22;27754;45.414;11.084;2023-03-04T15:12:26;14.90;59.10
42097;DHT22;27754;45.414;11.084;2023-03-04T15:14:57;14.90;59.40
42097;DHT22;27754;45.414;11.084;2023-03-04T15:20:25;14.60;59.50
42097;DHT22;27754;45.414;11.084;2023-03-04T15:25:19;14.50;59.70
42097;DHT22;27754;45.414;11.084;2023-03-04T15:27:47;14.40;60.10
42097;DHT22;27754;45.414;11.084;2023-03-04T15:30:15;14.40;60.40
42097;DHT22;27754;45.414;11.084;2023-03-04T15:32:43;14.40;60.40
42097;DHT22;27754;45.414;11.084;2023-03-04T15:35:15;14.30;60.20
42097;DHT22;27754;45.414;11.084;2023-03-04T15:37:43;14.30;60.60
42097;DHT22;27754;45.414;11.084;2023-03-04T15:40:25;14.20;61.00
42097;DHT22;27754;45.414;11.084;2023-03-04T15:42:53;14.20;60.40
42097;DHT22;27754;45.414;11.084;2023-03-04T15:47:49;14.10;61.40
42097;DHT22;27754;45.414;11.084;2023-03-04T15:50:18;14.10;61.30
42097;DHT22;27754;45.414;11.084;2023-03-04T15:52:45;14.00;61.70
42097;DHT22;27754;45.414;11.084;2023-03-04T15:55:18;14.00;61.60
42097;DHT22;27754;45.414;11.084;2023-03-04T15:57:49;13.90;61.60
42097;DHT22;27754;45.414;11.084;2023-03-04T16:00:18;13.90;61.70
42097;DHT22;27754;45.414;11.084;2023-03-04T16:02:45;13.80;62.40
42097;DHT22;27754;45.414;11.084;2023-03-04T16:05:14;13.80;62.60
42097;DHT22;27754;45.414;11.084;2023-03-04T16:07:44;13.70;62.20
42097;DHT22;27754;45.414;11.084;2023-03-04T16:10:27;13.70;62.10
42097;DHT22;27754;45.414;11.084;2023-03-04T16:12:56;13.60;62.10
42097;DHT22;27754;45.414;11.084;2023-03-04T16:15:25;13.60;62.30
42097;DHT22;27754;45.414;11.084;2023-03-04T16:17:53;13.50;62.60
42097;DHT22;27754;45.414;11.084;2023-03-04T16:20:23;13.40;62.60
42097;DHT22;27754;45.414;11.084;2023-03-04T16:22:53;13.40;63.20
42097;DHT22;27754;45.414;11.084;2023-03-04T16:25:23;13.30;63.70
42097;DHT22;27754;45.414;11.084;2023-03-04T16:27:53;13.30;63.70
42097;DHT22;27754;45.414;11.084;2023-03-04T16:30:25;13.20;63.90
42097;DHT22;27754;45.414;11.084;2023-03-04T16:32:52;13.10;64.30
42097;DHT22;27754;45.414;11.084;2023-03-04T16:35:20;13.10;64.60
42097;DHT22;27754;45.414;11.084;2023-03-04T16:37:51;13.00;64.80
42097;DHT22;27754;45.414;11.084;2023-03-04T16:40:29;12.90;65.20
42097;DHT22;27754;45.414;11.084;2023-03-04T16:42:56;12.80;65.20
42097;DHT22;27754;45.414;11.084;2023-03-04T16:45:26;12.80;65.50
42097;DHT22;27754;45.414;11.084;2023-03-04T16:47:56;12.70;65.80
42097;DHT22;27754;45.414;11.084;2023-03-04T16:50:25;12.60;65.80
42097;DHT22;27754;45.414;11.084;2023-03-04T16:52:54;12.50;66.10
42097;DHT22;27754;45.414;11.084;2023-03-04T16:55:26;12.40;66.20
42097;DHT22;27754;45.414;11.084;2023-03-04T16:57:54;12.30;66.50
42097;DHT22;27754;45.414;11.084;2023-03-04T17:00:24;12.20;66.80
42097;DHT22;27754;45.414;11.084;2023-03-04T17:02:57;12.10;66.90
42097;DHT22;27754;45.414;11.084;2023-03-04T17:05:29;12.10;67.10
42097;DHT22;27754;45.414;11.084;2023-03-04T17:07:56;11.90;67.30
42097;DHT22;27754;45.414;11.084;2023-03-04T17:10:24;11.90;67.40
42097;DHT22;27754;45.414;11.084;2023-03-04T17:12:51;11.80;67.80
42097;DHT22;27754;45.414;11.084;2023-03-04T17:15:18;11.70;67.90
42097;DHT22;27754;45.414;11.084;2023-03-04T17:17:45;11.60;68.10
42097;DHT22;27754;45.414;11.084;2023-03-04T17:20:16;11.50;68.30
42097;DHT22;27754;45.414;11.084;2023-03-04T17:22:44;11.40;68.50
42097;DHT22;27754;45.414;11.084;2023-03-04T17:25:12;11.30;68.90
42097;DHT22;27754;45.414;11.084;2023-03-04T17:27:40;11.20;69.20
42097;DHT22;27754;45.414;11.084;2023-03-04T17:30:09;11.10;69.50
42097;DHT22;27754;45.414;11.084;2023-03-04T17:32:38;11.00;70.00
42097;DHT22;27754;45.414;11.084;2023-03-04T17:35:06;10.90;70.50
42097;DHT22;27754;45.414;11.084;2023-03-04T17:37:34;10.90;70.70
42097;DHT22;27754;45.414;11.084;2023-03-04T17:40:03;10.80;70.80
42097;DHT22;27754;45.414;11.084;2023-03-04T17:42:31;10.70;71.20
42097;DHT22;27754;45.414;11.084;2023-03-04T17:44:58;10.60;71.50
42097;DHT22;27754;45.414;11.084;2023-03-04T17:47:25;10.60;71.80